Terminal Aerodrome Forecast
Issued by NWS

Home | Current Version | Previous Version | Graphics & Text | Print | Product List | Glossary On
Versions: 1 2 3 4 5 6 7 8 9 10 11 12 13 14 15
801
FTUS43 KMPX 231727
TAFRWF
TAF
KRWF 231727Z 2318/2418 22006KT P6SM BKN250
     FM232100 19008KT P6SM BKN250
     FM240300 19012KT P6SM BKN250
     FM241500 25010KT P6SM BKN120=

USA.gov is the U.S. government's official web portal to all federal, state and local government web resources and services.